createdAt,value
2019-04-23T00:18:02.839Z,9.40
2019-04-23T00:33:25.008Z,6.90
2019-04-23T00:38:29.016Z,7.63
2019-04-23T00:43:27.238Z,6.43
2019-04-23T00:48:35.065Z,8.03
2019-04-23T00:53:38.869Z,9.07
2019-04-23T00:58:47.745Z,8.63
2019-04-23T01:03:54.793Z,11.93
2019-04-23T01:08:55.194Z,10.60
2019-04-23T01:14:00.809Z,8.20
2019-04-23T01:19:20.645Z,8.50
2019-04-23T01:24:28.750Z,7.90
2019-04-23T01:29:58.548Z,8.93
2019-04-23T01:35:07.316Z,8.53
2019-04-23T01:45:24.584Z,7.23
2019-04-23T01:50:20.099Z,8.10
2019-04-23T02:00:30.705Z,7.80
2019-04-23T02:05:38.393Z,6.43
2019-04-23T02:10:49.385Z,8.07
2019-04-23T02:15:47.482Z,8.10
2019-04-23T02:20:57.636Z,7.97
2019-04-23T02:26:12.903Z,9.20
2019-04-23T02:31:23.493Z,7.90
2019-04-23T02:41:27.705Z,7.10
2019-04-23T02:46:13.453Z,6.37
2019-04-23T02:51:51.070Z,8.17
2019-04-23T02:56:49.701Z,7.87
2019-04-23T03:01:53.907Z,9.67
2019-04-23T03:06:56.021Z,8.60
2019-04-23T03:11:56.801Z,8.30
2019-04-23T03:17:08.803Z,8.77
2019-04-23T03:22:20.454Z,10.77
2019-04-23T03:33:43.858Z,9.67
2019-04-23T03:42:43.175Z,11.03
2019-04-23T03:52:44.766Z,12.77
2019-04-23T03:57:54.154Z,10.80
2019-04-23T04:03:04.771Z,10.30
2019-04-23T04:08:13.242Z,11.97
2019-04-23T04:13:17.925Z,10.63
2019-04-23T04:18:33.120Z,9.93
2019-04-23T04:23:37.742Z,10.33
2019-04-23T04:28:38.417Z,10.97
2019-04-23T04:38:54.451Z,16.27
2019-04-23T04:44:06.485Z,17.83
2019-04-23T04:48:58.810Z,16.53
2019-04-23T04:59:05.632Z,24.73
2019-04-23T05:04:13.532Z,10.83
2019-04-23T05:19:45.705Z,10.77
2019-04-23T05:29:36.620Z,15.27
2019-04-23T05:34:42.925Z,11.07
2019-04-23T05:39:49.283Z,11.03
2019-04-23T05:50:00.694Z,12.97
2019-04-23T05:55:01.598Z,9.47
2019-04-23T06:00:07.739Z,11.33
2019-04-23T06:05:22.504Z,8.30
2019-04-23T06:10:23.409Z,10.73
2019-04-23T06:15:29.022Z,8.00
2019-04-23T06:20:35.125Z,10.30
2019-04-23T06:25:50.801Z,10.33
2019-04-23T06:30:52.225Z,10.17
2019-04-23T06:35:50.393Z,9.20
2019-04-23T06:40:59.526Z,15.93
2019-04-23T06:45:59.389Z,10.30
2019-04-23T06:51:14.515Z,25.53
2019-04-23T07:01:36.571Z,6.23
2019-04-23T07:06:33.300Z,9.10
2019-04-23T07:11:40.397Z,7.20
2019-04-23T07:16:41.382Z,7.30
2019-04-23T07:21:35.628Z,9.50
2019-04-23T07:26:41.961Z,7.47
2019-04-23T07:31:54.545Z,8.93
2019-04-23T07:36:55.332Z,6.63
2019-04-23T07:42:24.737Z,6.70
2019-04-23T07:47:40.031Z,10.57
2019-04-23T07:52:59.051Z,8.03
2019-04-23T07:57:59.964Z,7.47
2019-04-23T08:03:10.980Z,6.97
2019-04-23T08:08:09.191Z,5.73
2019-04-23T08:13:17.308Z,6.77
2019-04-23T08:18:23.265Z,8.47
2019-04-23T08:23:49.604Z,6.13
2019-04-23T08:29:00.981Z,6.47
2019-04-23T08:33:57.774Z,8.87
2019-04-23T08:38:56.928Z,7.00
2019-04-23T08:44:15.679Z,7.70
2019-04-23T08:49:22.640Z,7.23
2019-04-23T08:54:26.593Z,9.10
2019-04-23T08:59:37.238Z,8.45
2019-04-23T09:09:43.893Z,9.58
2019-04-23T09:15:16.782Z,6.90
2019-04-23T09:20:39.460Z,6.20
2019-04-23T09:32:07.555Z,6.00
2019-04-23T09:37:00.150Z,6.60
2019-04-23T09:42:22.625Z,8.00
2019-04-23T09:47:42.024Z,6.65
2019-04-23T09:52:48.803Z,6.65
2019-04-23T09:57:50.062Z,7.10
2019-04-23T10:02:44.589Z,6.92
2019-04-23T10:07:41.842Z,9.55
2019-04-23T10:12:33.629Z,8.35
2019-04-23T10:17:38.046Z,6.97
2019-04-23T10:22:42.229Z,6.42
2019-04-23T10:27:52.945Z,7.53
2019-04-23T10:32:53.642Z,16.77
2019-04-23T10:38:04.164Z,6.53
2019-04-23T10:43:05.255Z,6.12
2019-04-23T10:59:12.225Z,11.93
2019-04-23T11:04:29.113Z,7.40
2019-04-23T11:09:36.528Z,6.28
2019-04-23T11:14:35.914Z,7.35
2019-04-23T11:19:42.555Z,8.05
2019-04-23T11:24:41.619Z,8.28
2019-04-23T11:45:06.944Z,9.98
2019-04-23T11:50:24.044Z,9.13
2019-04-23T11:55:29.369Z,6.30
2019-04-23T12:06:00.549Z,6.60
2019-04-23T12:11:24.022Z,8.95
2019-04-23T12:16:12.951Z,8.98
2019-04-23T12:21:20.657Z,7.45
2019-04-23T12:26:31.405Z,8.25
2019-04-23T12:31:34.901Z,7.87
2019-04-23T12:36:39.504Z,10.98
2019-04-23T12:41:43.306Z,12.13
2019-04-23T12:46:46.889Z,10.17
2019-04-23T12:57:04.862Z,15.23
2019-04-23T13:02:03.597Z,8.47
2019-04-23T13:07:09.059Z,10.10
2019-04-23T13:12:20.305Z,10.27
2019-04-23T13:22:30.772Z,8.17
2019-04-23T13:27:38.736Z,11.33
2019-04-23T13:32:39.078Z,10.63
2019-04-23T13:37:59.320Z,11.33
2019-04-23T13:42:52.541Z,13.57
2019-04-23T13:48:02.213Z,10.10
2019-04-23T14:03:09.679Z,9.17
2019-04-23T14:08:22.430Z,10.37
2019-04-23T14:13:37.188Z,11.60
2019-04-23T14:24:00.421Z,12.03
2019-04-23T14:33:52.725Z,12.53
2019-04-23T14:38:49.204Z,9.10
2019-04-23T14:49:04.169Z,11.00
2019-04-23T14:54:08.665Z,10.57
2019-04-23T15:04:25.233Z,14.80
2019-04-23T15:14:32.786Z,10.73
2019-04-23T15:20:30.741Z,12.17
2019-04-23T16:05:48.888Z,9.17
2019-04-23T16:12:00.064Z,11.03
2019-04-23T16:17:42.219Z,11.17
2019-04-23T16:48:07.677Z,7.47
2019-04-23T16:53:44.707Z,7.43
2019-04-23T16:59:10.297Z,10.83
2019-04-23T17:11:09.730Z,4.63
2019-04-23T17:17:15.581Z,6.03
2019-04-23T17:23:14.681Z,6.60
2019-04-23T17:28:59.724Z,4.30
2019-04-23T17:34:48.116Z,5.90
2019-04-23T17:40:14.101Z,7.17
2019-04-23T17:50:33.562Z,5.83
2019-04-23T18:02:30.406Z,6.50
2019-04-23T18:07:38.342Z,4.50
2019-04-23T18:36:19.599Z,6.70
2019-04-23T18:42:56.876Z,6.53
2019-04-23T18:54:55.700Z,5.10
2019-04-23T19:06:15.315Z,2.10
2019-04-23T19:12:05.125Z,2.23
2019-04-23T19:17:46.438Z,4.63
2019-04-23T19:34:24.499Z,2.70
2019-04-23T19:39:56.200Z,3.23
2019-04-23T19:46:00.911Z,2.07
2019-04-23T19:51:33.484Z,5.00
2019-04-23T19:57:06.592Z,3.20
2019-04-23T20:02:27.140Z,2.80
2019-04-23T20:08:16.918Z,3.67
2019-04-23T20:14:00.912Z,3.87
2019-04-23T20:19:35.926Z,2.93
2019-04-23T20:36:49.330Z,6.57
2019-04-23T20:49:18.311Z,5.40
2019-04-23T20:55:01.941Z,6.43
2019-04-23T21:07:46.737Z,6.33
2019-04-23T21:19:02.621Z,6.50
2019-04-23T21:24:01.340Z,6.83
2019-04-23T21:29:07.347Z,6.80
2019-04-23T21:34:17.467Z,5.87
2019-04-23T21:39:47.720Z,8.20
2019-04-23T21:44:40.822Z,9.40
2019-04-23T21:49:57.865Z,12.20
2019-04-23T21:54:51.171Z,11.17
2019-04-23T21:59:55.735Z,10.90
2019-04-23T22:05:01.023Z,11.50
2019-04-23T22:15:16.423Z,8.07
2019-04-23T22:25:25.289Z,9.17
2019-04-23T22:30:36.873Z,12.43
2019-04-23T22:35:38.700Z,12.73
2019-04-23T22:40:45.190Z,12.57
2019-04-23T22:45:59.607Z,13.87
2019-04-23T22:51:04.881Z,13.43
2019-04-23T22:56:03.286Z,13.43
2019-04-23T23:01:26.379Z,15.93
2019-04-23T23:06:29.650Z,14.17
2019-04-23T23:11:26.667Z,12.57
2019-04-23T23:16:39.260Z,14.63
2019-04-23T23:21:53.561Z,17.33
2019-04-23T23:26:49.440Z,14.30
2019-04-23T23:32:09.629Z,15.83
2019-04-23T23:42:02.803Z,15.87
2019-04-23T23:47:07.287Z,18.50
2019-04-23T23:52:16.161Z,16.77
2019-04-23T23:57:30.475Z,16.00
